HDAM/JIB METAR and TAF weather

Enter ICAO airport designator
Station Type Date Time Source
HDAM METAR 2020/09/20 11:00 UTC NOAA

HDAM 201100Z 08013KT 9999 FEW023 FEW030CB 36/25 Q1004


Station Type Date Time Source
HDAM Decoded METAR 2020/09/20 11:00 UTC NOAA

Djibouti \ Ambouli, Djibouti (HDAM) 11-33N 043-10E
Sep 20, 2020 - 07:00 AM EDT / 2020.09.20 1100 UTC
Wind: from the E (080 degrees) at 15 MPH (13 KT):0
Visibility: greater than 7 mile(s):0
Sky conditions: mostly clear
Weather: Cumulonimbus clouds observed
Temperature: 96 F (36 C)
Heat index: 109.9 F (43.3 C):1
Dew Point: 77 F (25 C)
Relative Humidity: 53%
Pressure (altimeter): 29.65 in. Hg (1004 hPa)
ob: HDAM 201100Z 08013KT 9999 FEW023 FEW030CB 36/25 Q1004
cycle: 11

Station Type Date Time Source
HDAM TAF 2020/09/20 12:21 UTC NOAA

TAF TAF HDAM 201100Z 2012/2112 08010G15KT 9999 SCT023
BECMG 2015/2021 VRB05KT SCT133
BECMG 2100/2106 00000KT FEW020 SCT133

Example: see airport list